createdAt,value
2017-09-14T00:00:51.752Z,0.00
2017-09-14T00:01:51.720Z,0.00
2017-09-14T00:02:51.689Z,0.00
2017-09-14T00:03:51.657Z,0.00
2017-09-14T00:04:51.627Z,0.00
2017-09-14T00:05:51.596Z,0.00
2017-09-14T00:06:51.561Z,0.00
2017-09-14T00:07:51.532Z,0.00
2017-09-14T00:08:51.497Z,0.00
2017-09-14T00:09:51.468Z,0.00
2017-09-14T00:10:51.434Z,0.00
2017-09-14T00:11:51.403Z,0.00
2017-09-14T00:12:51.371Z,0.00
2017-09-14T00:13:51.341Z,0.00
2017-09-14T00:14:51.309Z,0.00
2017-09-14T00:15:51.277Z,0.00
2017-09-14T00:16:51.247Z,0.00
2017-09-14T00:17:51.214Z,0.00
2017-09-14T00:18:51.181Z,0.00
2017-09-14T00:19:51.150Z,0.00
2017-09-14T00:20:51.866Z,0.00
2017-09-14T00:21:51.086Z,0.00
2017-09-14T00:22:51.054Z,0.00
2017-09-14T00:23:51.021Z,0.00
2017-09-14T00:24:50.991Z,0.00
2017-09-14T00:25:50.966Z,0.00
2017-09-14T00:26:50.928Z,0.00
2017-09-14T00:27:50.896Z,0.00
2017-09-14T00:28:50.864Z,0.00
2017-09-14T00:29:50.832Z,0.00
2017-09-14T00:30:50.801Z,0.00
2017-09-14T00:31:50.770Z,0.00
2017-09-14T00:32:50.737Z,0.00
2017-09-14T00:33:50.706Z,0.00
2017-09-14T00:34:50.673Z,0.00
2017-09-14T00:35:50.644Z,0.00
2017-09-14T00:36:50.609Z,0.00
2017-09-14T00:37:50.578Z,0.00
2017-09-14T00:38:50.552Z,0.00
2017-09-14T00:39:50.513Z,0.00
2017-09-14T00:40:50.481Z,0.00
2017-09-14T00:41:50.451Z,0.00
2017-09-14T00:42:50.415Z,0.00
2017-09-14T00:43:50.387Z,0.00
2017-09-14T00:44:50.353Z,0.00
2017-09-14T00:45:50.323Z,0.00
2017-09-14T00:46:50.291Z,0.00
2017-09-14T00:47:50.257Z,0.00
2017-09-14T00:48:50.228Z,0.00
2017-09-14T00:49:50.197Z,0.00
2017-09-14T00:50:50.164Z,0.00
2017-09-14T00:51:50.131Z,0.00
2017-09-14T00:52:50.098Z,0.00
2017-09-14T00:53:50.069Z,0.00
2017-09-14T00:54:50.035Z,0.00
2017-09-14T00:55:50.004Z,0.00
2017-09-14T00:56:49.980Z,0.00
2017-09-14T00:57:49.947Z,0.00
2017-09-14T00:58:49.907Z,0.00
2017-09-14T00:59:49.876Z,0.00
2017-09-14T01:00:49.847Z,0.00
2017-09-14T01:01:49.812Z,0.00
2017-09-14T01:02:49.782Z,0.00
2017-09-14T01:03:49.748Z,0.00
2017-09-14T01:04:49.718Z,0.00
2017-09-14T01:05:49.685Z,0.00
2017-09-14T01:06:49.654Z,0.00
2017-09-14T01:07:49.623Z,0.00
2017-09-14T01:08:49.590Z,0.00
2017-09-14T01:09:49.559Z,0.00
2017-09-14T01:10:49.529Z,0.00
2017-09-14T01:11:49.495Z,0.00
2017-09-14T01:12:49.463Z,0.00
2017-09-14T01:13:49.431Z,0.00
2017-09-14T01:14:49.398Z,0.00
2017-09-14T01:15:49.366Z,0.00
2017-09-14T01:16:49.335Z,0.00
2017-09-14T01:17:49.304Z,0.00
2017-09-14T01:18:49.270Z,0.00
2017-09-14T01:19:49.239Z,0.00
2017-09-14T01:20:49.208Z,0.00
2017-09-14T01:21:49.176Z,0.00
2017-09-14T01:22:49.143Z,0.00
2017-09-14T01:23:49.105Z,0.00
2017-09-14T01:24:49.081Z,0.00
2017-09-14T01:25:49.051Z,0.00
2017-09-14T01:26:49.044Z,0.00
2017-09-14T01:27:48.987Z,0.00
2017-09-14T01:28:48.953Z,0.00
2017-09-14T01:29:48.922Z,0.00
2017-09-14T01:30:48.899Z,0.00
2017-09-14T01:31:48.855Z,0.00
2017-09-14T01:32:48.826Z,0.00
2017-09-14T01:33:48.794Z,0.00
2017-09-14T01:34:48.769Z,0.00
2017-09-14T01:35:48.729Z,0.00
2017-09-14T01:36:48.696Z,0.00
2017-09-14T01:37:48.664Z,0.00
2017-09-14T01:38:48.632Z,0.00
2017-09-14T01:39:48.601Z,0.00
2017-09-14T01:40:48.569Z,0.00
2017-09-14T01:41:48.538Z,0.00
2017-09-14T01:42:48.506Z,0.00
2017-09-14T01:43:48.491Z,0.00
2017-09-14T01:44:48.441Z,0.00
2017-09-14T01:45:48.410Z,0.00
2017-09-14T01:46:48.381Z,0.00
2017-09-14T01:47:48.346Z,0.00
2017-09-14T01:48:48.313Z,0.00
2017-09-14T01:49:48.282Z,0.00
2017-09-14T01:50:48.249Z,0.00
2017-09-14T01:51:48.218Z,0.00
2017-09-14T01:52:48.191Z,0.00
2017-09-14T01:53:48.153Z,0.00
2017-09-14T01:54:48.121Z,0.00
2017-09-14T01:55:48.090Z,0.00
2017-09-14T01:56:48.059Z,0.00
2017-09-14T01:57:48.025Z,0.00
2017-09-14T01:58:47.997Z,0.00
2017-09-14T01:59:47.962Z,0.00
2017-09-14T02:00:47.930Z,0.00
2017-09-14T02:01:47.901Z,0.00
2017-09-14T02:02:47.867Z,0.00
2017-09-14T02:03:47.832Z,0.00
2017-09-14T02:04:47.802Z,0.00
2017-09-14T02:05:47.768Z,0.00
2017-09-14T02:06:47.738Z,0.00
2017-09-14T02:07:47.706Z,0.00
2017-09-14T02:08:48.040Z,0.00
2017-09-14T02:09:47.641Z,0.00
2017-09-14T02:10:47.609Z,0.00
2017-09-14T02:11:47.580Z,0.00
2017-09-14T02:12:47.546Z,0.00
2017-09-14T02:13:47.514Z,0.00
2017-09-14T02:14:47.481Z,0.00
2017-09-14T02:15:47.450Z,0.00
2017-09-14T02:16:47.417Z,0.00
2017-09-14T02:17:47.386Z,0.00
2017-09-14T02:18:47.351Z,0.00
2017-09-14T02:19:47.338Z,0.00
2017-09-14T02:20:47.289Z,0.00
2017-09-14T02:21:47.340Z,0.00
2017-09-14T02:22:47.225Z,0.00
2017-09-14T02:23:47.197Z,0.00
2017-09-14T02:24:47.162Z,0.00
2017-09-14T02:25:47.128Z,0.00
2017-09-14T02:26:47.097Z,0.00
2017-09-14T02:27:47.064Z,0.00
2017-09-14T02:28:47.034Z,0.00
2017-09-14T02:29:47.001Z,0.00
2017-09-14T02:30:46.968Z,0.00
2017-09-14T02:31:46.936Z,0.00
2017-09-14T02:32:46.905Z,0.00
2017-09-14T02:33:46.874Z,0.00
2017-09-14T02:34:46.839Z,0.00
2017-09-14T02:35:46.807Z,0.00
2017-09-14T02:36:46.777Z,0.00
2017-09-14T02:37:46.746Z,0.00
2017-09-14T02:38:46.713Z,0.00
2017-09-14T02:39:46.681Z,0.00
2017-09-14T02:40:46.649Z,0.00
2017-09-14T02:41:46.619Z,0.00
2017-09-14T02:42:46.585Z,0.00
2017-09-14T02:43:46.554Z,0.00
2017-09-14T02:44:46.521Z,0.00
2017-09-14T02:45:46.490Z,0.00
2017-09-14T02:46:47.203Z,0.00
2017-09-14T02:47:46.426Z,0.00
2017-09-14T02:48:46.394Z,0.00
2017-09-14T02:49:46.365Z,0.00
2017-09-14T02:50:46.349Z,0.00
2017-09-14T02:51:46.300Z,0.00
2017-09-14T02:52:46.264Z,0.00
2017-09-14T02:53:46.235Z,0.00
2017-09-14T02:54:46.502Z,0.00
2017-09-14T02:55:46.170Z,0.00
2017-09-14T02:56:46.145Z,0.00
2017-09-14T02:57:46.106Z,0.00
2017-09-14T02:58:46.073Z,0.00
2017-09-14T02:59:46.043Z,0.00
2017-09-14T03:00:46.515Z,0.00
2017-09-14T03:01:46.278Z,0.00
2017-09-14T03:02:45.941Z,0.00
2017-09-14T03:03:46.798Z,0.00
2017-09-14T03:04:45.883Z,0.00
2017-09-14T03:05:45.850Z,0.00
2017-09-14T03:06:45.821Z,0.00
2017-09-14T03:07:45.788Z,0.00
2017-09-14T03:08:45.756Z,0.00
2017-09-14T03:09:45.724Z,0.00
2017-09-14T03:10:45.693Z,0.00
2017-09-14T03:11:45.661Z,0.00
2017-09-14T03:12:45.629Z,0.00
2017-09-14T03:13:45.596Z,0.00
2017-09-14T03:14:45.564Z,0.00
2017-09-14T03:15:45.534Z,0.00
2017-09-14T03:16:45.786Z,0.00
2017-09-14T03:17:46.089Z,0.00
2017-09-14T03:18:45.436Z,0.00
2017-09-14T03:19:45.405Z,0.00
2017-09-14T03:20:45.372Z,0.00
2017-09-14T03:21:45.344Z,0.00
2017-09-14T03:22:45.307Z,0.00
2017-09-14T03:23:45.277Z,0.00
2017-09-14T03:24:45.245Z,0.00
2017-09-14T03:25:45.215Z,0.00
2017-09-14T03:26:45.181Z,0.00
2017-09-14T03:27:45.151Z,0.00
2017-09-14T03:28:45.119Z,0.00
2017-09-14T03:29:45.087Z,0.00
2017-09-14T03:30:45.054Z,0.00
2017-09-14T03:31:45.020Z,0.00
2017-09-14T03:32:44.991Z,0.00
2017-09-14T03:33:44.958Z,0.00
2017-09-14T03:34:44.925Z,0.00
2017-09-14T03:35:44.893Z,0.00
2017-09-14T03:36:44.867Z,0.00
2017-09-14T03:37:44.831Z,0.00
2017-09-14T03:38:44.798Z,0.00
2017-09-14T03:39:44.765Z,0.00
2017-09-14T03:40:44.732Z,0.00
2017-09-14T03:41:44.703Z,0.00
2017-09-14T03:42:44.676Z,0.00
2017-09-14T03:43:44.644Z,0.00
2017-09-14T03:44:44.606Z,0.00
2017-09-14T03:45:44.574Z,0.00
2017-09-14T03:46:44.541Z,0.00
2017-09-14T03:47:44.712Z,0.00
2017-09-14T03:48:44.478Z,0.00
2017-09-14T03:49:44.446Z,0.00
2017-09-14T03:50:44.446Z,0.00
2017-09-14T03:51:44.381Z,0.00
2017-09-14T03:52:44.349Z,0.00
2017-09-14T03:53:44.319Z,0.00
2017-09-14T03:54:44.286Z,0.00
2017-09-14T03:55:44.253Z,0.00
2017-09-14T03:56:44.225Z,0.00
2017-09-14T03:57:44.190Z,0.00
2017-09-14T03:58:44.156Z,0.00
2017-09-14T03:59:44.124Z,0.00
2017-09-14T04:00:44.097Z,0.00
2017-09-14T04:01:44.061Z,0.00
2017-09-14T04:02:44.029Z,0.00
2017-09-14T04:03:43.997Z,0.00
2017-09-14T04:04:43.966Z,0.00
2017-09-14T04:05:43.933Z,0.00
2017-09-14T04:06:43.901Z,0.00
2017-09-14T04:07:43.869Z,0.00
2017-09-14T04:08:43.838Z,0.00
2017-09-14T04:09:43.805Z,0.00
2017-09-14T04:10:43.773Z,0.00
2017-09-14T04:11:43.744Z,0.00
2017-09-14T04:12:43.710Z,0.00
2017-09-14T04:13:43.679Z,0.00
2017-09-14T04:14:43.646Z,0.00
2017-09-14T04:15:44.101Z,0.00
2017-09-14T04:16:43.584Z,0.00
2017-09-14T04:17:43.551Z,0.00
2017-09-14T04:18:43.518Z,0.00
2017-09-14T04:19:43.486Z,0.00
2017-09-14T04:20:43.455Z,0.00
2017-09-14T04:21:43.423Z,0.00
2017-09-14T04:22:43.391Z,0.00
2017-09-14T04:23:43.359Z,0.00
2017-09-14T04:24:43.327Z,0.00
2017-09-14T04:25:43.294Z,0.00
2017-09-14T04:26:43.263Z,0.00
2017-09-14T04:27:43.231Z,0.00
2017-09-14T04:28:43.200Z,0.00
2017-09-14T04:29:43.174Z,0.00
2017-09-14T04:30:43.134Z,0.00
2017-09-14T04:31:43.105Z,0.00
2017-09-14T04:32:43.074Z,0.00
2017-09-14T04:33:43.038Z,0.00
2017-09-14T04:34:43.007Z,0.00
2017-09-14T04:35:42.974Z,0.00
2017-09-14T04:36:42.942Z,0.00
2017-09-14T04:37:42.910Z,0.00
2017-09-14T04:38:42.878Z,0.00
2017-09-14T04:39:42.851Z,0.00
2017-09-14T04:40:42.814Z,0.00
2017-09-14T04:41:42.783Z,4.00
2017-09-14T04:42:42.749Z,4.00
2017-09-14T04:43:42.719Z,4.00
2017-09-14T04:44:42.686Z,0.00
2017-09-14T04:45:42.653Z,0.00
2017-09-14T04:46:42.621Z,4.00
2017-09-14T04:47:42.589Z,4.00
2017-09-14T04:48:42.558Z,8.00
2017-09-14T04:49:42.524Z,4.00
2017-09-14T04:50:42.492Z,8.00
2017-09-14T04:51:42.459Z,4.00
2017-09-14T04:52:42.429Z,8.00
2017-09-14T04:53:42.396Z,8.00
2017-09-14T04:54:42.366Z,12.00
2017-09-14T04:55:42.331Z,12.00
2017-09-14T04:56:42.300Z,12.00
2017-09-14T04:57:42.271Z,12.00
2017-09-14T04:58:42.236Z,16.00
2017-09-14T04:59:42.204Z,16.00
2017-09-14T05:00:42.170Z,20.00
2017-09-14T05:01:42.138Z,20.00
2017-09-14T05:02:42.107Z,24.00
2017-09-14T05:03:42.081Z,24.00
2017-09-14T05:04:42.041Z,28.00
2017-09-14T05:05:42.009Z,32.00
2017-09-14T05:06:41.977Z,28.00
2017-09-14T05:07:41.943Z,32.00
2017-09-14T05:08:41.912Z,32.00
2017-09-14T05:09:41.880Z,36.00
2017-09-14T05:10:41.845Z,40.00
2017-09-14T05:11:41.815Z,44.00
2017-09-14T05:12:41.784Z,48.00
2017-09-14T05:13:41.750Z,48.00
2017-09-14T05:14:41.719Z,52.00
2017-09-14T05:15:41.688Z,52.00
2017-09-14T05:16:41.655Z,52.00
2017-09-14T05:17:41.622Z,56.00
2017-09-14T05:18:41.588Z,56.00
2017-09-14T05:19:41.556Z,60.00
2017-09-14T05:20:41.740Z,64.00
2017-09-14T05:21:41.493Z,68.00
2017-09-14T05:22:41.460Z,68.00
2017-09-14T05:23:41.427Z,68.00
2017-09-14T05:24:41.396Z,76.00
2017-09-14T05:25:41.364Z,76.00
2017-09-14T05:26:41.330Z,84.00
2017-09-14T05:27:41.298Z,80.00
2017-09-14T05:28:41.263Z,80.00
2017-09-14T05:29:41.234Z,80.00
2017-09-14T05:30:41.200Z,88.00
2017-09-14T05:31:41.170Z,88.00
2017-09-14T05:32:41.135Z,92.00
2017-09-14T05:33:41.104Z,96.00
2017-09-14T05:34:41.072Z,104.00
2017-09-14T05:35:41.038Z,104.00
2017-09-14T05:36:41.006Z,96.00
2017-09-14T05:37:40.973Z,88.00
2017-09-14T05:38:40.942Z,88.00
2017-09-14T05:39:40.911Z,88.00
2017-09-14T05:40:40.877Z,88.00
2017-09-14T05:41:40.844Z,88.00
2017-09-14T05:42:40.813Z,92.00
2017-09-14T05:43:40.780Z,100.00
2017-09-14T05:44:40.749Z,108.00
2017-09-14T05:45:40.716Z,120.00
2017-09-14T05:46:40.678Z,140.00
2017-09-14T05:47:40.654Z,164.00
2017-09-14T05:48:40.619Z,160.00
2017-09-14T05:49:40.588Z,140.00
2017-09-14T05:50:40.554Z,124.00
2017-09-14T05:51:40.523Z,120.00
2017-09-14T05:52:40.537Z,128.00
2017-09-14T05:53:40.462Z,152.00
2017-09-14T05:54:40.425Z,208.00
2017-09-14T05:55:40.468Z,236.00
2017-09-14T05:56:40.361Z,216.00
2017-09-14T05:57:40.335Z,196.00
2017-09-14T05:58:40.300Z,176.00
2017-09-14T05:59:40.266Z,148.00
2017-09-14T06:00:40.233Z,128.00
2017-09-14T06:01:40.466Z,120.00
2017-09-14T06:02:40.167Z,128.00
2017-09-14T06:03:40.135Z,144.00
2017-09-14T06:04:40.103Z,172.00
2017-09-14T06:05:40.071Z,220.00
2017-09-14T06:06:40.040Z,288.00
2017-09-14T06:07:40.006Z,380.00
2017-09-14T06:08:39.975Z,488.00
2017-09-14T06:09:39.942Z,624.00
2017-09-14T06:10:39.901Z,800.00
2017-09-14T06:11:39.875Z,992.00
2017-09-14T06:12:39.840Z,1140.00
2017-09-14T06:13:39.813Z,1080.00
2017-09-14T06:14:39.775Z,792.00
2017-09-14T06:15:39.745Z,540.00
2017-09-14T06:16:39.714Z,424.00
2017-09-14T06:17:39.681Z,400.00
2017-09-14T06:18:39.648Z,436.00
2017-09-14T06:19:39.614Z,516.00
2017-09-14T06:20:40.270Z,564.00
2017-09-14T06:21:39.550Z,544.00
2017-09-14T06:22:39.516Z,496.00
2017-09-14T06:23:39.484Z,428.00
2017-09-14T06:24:39.452Z,368.00
2017-09-14T06:25:39.419Z,364.00
2017-09-14T06:26:39.388Z,412.00
2017-09-14T06:27:39.357Z,444.00
2017-09-14T06:28:39.320Z,444.00
2017-09-14T06:29:39.290Z,516.00
2017-09-14T06:30:39.255Z,688.00
2017-09-14T06:31:39.226Z,856.00
2017-09-14T06:32:39.192Z,944.00
2017-09-14T06:33:39.160Z,1028.00
2017-09-14T06:34:39.127Z,988.00
2017-09-14T06:35:39.094Z,924.00
2017-09-14T06:36:39.061Z,852.00
2017-09-14T06:37:39.030Z,964.00
2017-09-14T06:38:38.997Z,1068.00
2017-09-14T06:39:38.965Z,1080.00
2017-09-14T06:40:38.932Z,976.00
2017-09-14T06:41:38.899Z,932.00
2017-09-14T06:42:38.865Z,980.00
2017-09-14T06:43:38.834Z,936.00
2017-09-14T06:44:38.808Z,836.00
2017-09-14T06:45:38.772Z,800.00
2017-09-14T06:46:38.780Z,768.00
2017-09-14T06:47:38.704Z,740.00
2017-09-14T06:48:38.673Z,740.00
2017-09-14T06:49:38.641Z,744.00
2017-09-14T06:50:38.871Z,756.00
2017-09-14T06:51:38.575Z,668.00
2017-09-14T06:52:38.543Z,548.00
2017-09-14T06:53:38.511Z,516.00
2017-09-14T06:54:38.480Z,560.00
2017-09-14T06:55:38.446Z,588.00
2017-09-14T06:56:38.414Z,572.00
2017-09-14T06:57:38.385Z,516.00
2017-09-14T06:58:38.350Z,492.00
2017-09-14T06:59:38.317Z,492.00
2017-09-14T07:00:38.285Z,468.00
2017-09-14T07:01:38.253Z,464.00
2017-09-14T07:02:38.220Z,552.00
2017-09-14T07:03:38.229Z,628.00
2017-09-14T07:04:38.159Z,556.00
2017-09-14T07:05:38.126Z,468.00
2017-09-14T07:06:38.092Z,528.00
2017-09-14T07:07:38.273Z,636.00
2017-09-14T07:08:38.029Z,712.00
2017-09-14T07:09:37.997Z,776.00
2017-09-14T07:10:37.972Z,824.00
2017-09-14T07:11:37.932Z,864.00
2017-09-14T07:12:38.430Z,928.00
2017-09-14T07:13:37.871Z,984.00
2017-09-14T07:14:37.835Z,1068.00
2017-09-14T07:15:37.803Z,1156.00
2017-09-14T07:16:37.772Z,1144.00
2017-09-14T07:17:37.740Z,1036.00
2017-09-14T07:18:37.707Z,996.00
2017-09-14T07:19:37.690Z,996.00
2017-09-14T07:20:37.649Z,1012.00
2017-09-14T07:21:37.611Z,1052.00
2017-09-14T07:22:37.580Z,1040.00
2017-09-14T07:23:37.552Z,1072.00
2017-09-14T07:24:37.508Z,1220.00
2017-09-14T07:25:37.482Z,1432.00
2017-09-14T07:26:37.449Z,1628.00
2017-09-14T07:27:37.417Z,1684.00
2017-09-14T07:28:37.388Z,1656.00
2017-09-14T07:29:37.354Z,1744.00
2017-09-14T07:30:37.321Z,1792.00
2017-09-14T07:31:37.292Z,1808.00
2017-09-14T07:32:37.257Z,1896.00
2017-09-14T07:33:37.225Z,2008.00
2017-09-14T07:34:37.194Z,1884.00
2017-09-14T07:35:37.161Z,1892.00
2017-09-14T07:36:37.129Z,1976.00
2017-09-14T07:37:37.099Z,1948.00
2017-09-14T07:38:37.064Z,1936.00
2017-09-14T07:39:37.032Z,2360.00
2017-09-14T07:40:37.003Z,2664.00
2017-09-14T07:41:36.969Z,2500.00
2017-09-14T07:42:36.938Z,2324.00
2017-09-14T07:43:36.906Z,2352.00
2017-09-14T07:44:36.875Z,2380.00
2017-09-14T07:45:36.853Z,2448.00
2017-09-14T07:46:36.811Z,2620.00
2017-09-14T07:47:36.778Z,2520.00
2017-09-14T07:48:36.748Z,2264.00
2017-09-14T07:49:36.715Z,2268.00
2017-09-14T07:50:36.685Z,2508.00
2017-09-14T07:51:36.656Z,2824.00
2017-09-14T07:52:36.622Z,3092.00
2017-09-14T07:53:36.590Z,3376.00
2017-09-14T07:54:36.558Z,3700.00
2017-09-14T07:55:36.525Z,3700.00
2017-09-14T07:56:36.808Z,3784.00
2017-09-14T07:57:36.464Z,3764.00
2017-09-14T07:58:36.432Z,3888.00
2017-09-14T07:59:36.399Z,3832.00
2017-09-14T08:00:36.370Z,3744.00
2017-09-14T08:01:36.337Z,3940.00
2017-09-14T08:02:36.305Z,4084.00
2017-09-14T08:03:36.277Z,4228.00
2017-09-14T08:04:36.244Z,4316.00
2017-09-14T08:05:36.213Z,4496.00
2017-09-14T08:06:36.183Z,4424.00
2017-09-14T08:07:36.150Z,4288.00
2017-09-14T08:08:36.121Z,4052.00
2017-09-14T08:09:36.086Z,4136.00
2017-09-14T08:10:36.058Z,4440.00
2017-09-14T08:11:36.026Z,4684.00
2017-09-14T08:12:35.994Z,4912.00
2017-09-14T08:13:35.963Z,5192.00
2017-09-14T08:14:35.934Z,5192.00
2017-09-14T08:15:35.903Z,5820.00
2017-09-14T08:16:35.872Z,6296.00
2017-09-14T08:17:35.842Z,5996.00
2017-09-14T08:18:35.811Z,5376.00
2017-09-14T08:19:35.781Z,5688.00
2017-09-14T08:20:35.749Z,6248.00
2017-09-14T08:21:35.720Z,7612.00
2017-09-14T08:22:35.690Z,7952.00
2017-09-14T08:23:35.658Z,10392.00
2017-09-14T08:24:35.630Z,7328.00
2017-09-14T08:25:35.599Z,5916.00
2017-09-14T08:26:35.567Z,8320.00
2017-09-14T08:27:35.537Z,5776.00
2017-09-14T08:28:35.506Z,5128.00
2017-09-14T08:29:35.484Z,5592.00
2017-09-14T08:30:35.450Z,11780.00
2017-09-14T08:31:35.418Z,11364.00
2017-09-14T08:32:35.387Z,4220.00
2017-09-14T08:33:35.363Z,4300.00
2017-09-14T08:34:35.329Z,4152.00
2017-09-14T08:35:35.301Z,4956.00
2017-09-14T08:36:35.270Z,6444.00
2017-09-14T08:37:35.243Z,9892.00
2017-09-14T08:38:35.211Z,6972.00
2017-09-14T08:39:35.183Z,6964.00
2017-09-14T08:40:35.153Z,16192.00
2017-09-14T08:41:35.125Z,16224.00
2017-09-14T08:42:35.094Z,9532.00
2017-09-14T08:43:35.065Z,7880.00
2017-09-14T08:44:35.040Z,6704.00
2017-09-14T08:45:35.010Z,5320.00
2017-09-14T08:46:34.983Z,5292.00
2017-09-14T08:47:34.955Z,5520.00
2017-09-14T08:48:34.923Z,4876.00
2017-09-14T08:49:34.895Z,5208.00
2017-09-14T08:50:34.864Z,3844.00
2017-09-14T08:51:35.268Z,3736.00
2017-09-14T08:52:34.858Z,3752.00
2017-09-14T08:53:34.777Z,4648.00
2017-09-14T08:54:34.749Z,5492.00
2017-09-14T08:55:34.718Z,5312.00
2017-09-14T08:56:34.689Z,8180.00
2017-09-14T08:57:34.659Z,6568.00
2017-09-14T08:58:34.628Z,5100.00
2017-09-14T08:59:34.600Z,16544.00
2017-09-14T09:00:34.569Z,7756.00
2017-09-14T09:01:34.541Z,6180.00
2017-09-14T09:02:34.508Z,4616.00
2017-09-14T09:03:34.482Z,15872.00
2017-09-14T09:04:34.452Z,17632.00
2017-09-14T09:05:34.426Z,15296.00
2017-09-14T09:06:34.398Z,18880.00
2017-09-14T09:07:34.366Z,16960.00
2017-09-14T09:08:34.338Z,17984.00
2017-09-14T09:09:34.313Z,8020.00
2017-09-14T09:10:34.285Z,20352.00
2017-09-14T09:11:34.259Z,9364.00
2017-09-14T09:12:34.234Z,7672.00
2017-09-14T09:13:34.206Z,7504.00
2017-09-14T09:14:34.181Z,7244.00
2017-09-14T09:15:34.154Z,6904.00
2017-09-14T09:16:34.127Z,6568.00
2017-09-14T09:17:34.097Z,7432.00
2017-09-14T09:18:34.073Z,7420.00
2017-09-14T09:19:34.046Z,6464.00
2017-09-14T09:20:34.017Z,6036.00
2017-09-14T09:21:33.990Z,5904.00
2017-09-14T09:22:33.962Z,23168.00
2017-09-14T09:23:33.935Z,14784.00
2017-09-14T09:24:33.904Z,7052.00
2017-09-14T09:25:33.879Z,18720.00
2017-09-14T09:26:33.851Z,8348.00
2017-09-14T09:27:33.823Z,15392.00
2017-09-14T09:28:33.798Z,16320.00
2017-09-14T09:29:33.770Z,17184.00
2017-09-14T09:30:33.741Z,7804.00
2017-09-14T09:31:33.714Z,8396.00
2017-09-14T09:32:33.688Z,26848.00
2017-09-14T09:33:33.734Z,24224.00
2017-09-14T09:34:33.633Z,18496.00
2017-09-14T09:35:33.608Z,11088.00
2017-09-14T09:36:33.581Z,24256.00
2017-09-14T09:37:33.553Z,18272.00
2017-09-14T09:38:33.532Z,21792.00
2017-09-14T09:39:33.507Z,12404.00
2017-09-14T09:40:33.480Z,15680.00
2017-09-14T09:41:33.453Z,15776.00
2017-09-14T09:42:33.430Z,17504.00
2017-09-14T09:43:33.404Z,7952.00
2017-09-14T09:44:33.380Z,26592.00
2017-09-14T09:45:33.355Z,20000.00
2017-09-14T09:46:33.330Z,22880.00
2017-09-14T09:47:33.307Z,13604.00
2017-09-14T09:48:33.283Z,8444.00
2017-09-14T09:49:33.260Z,7992.00
2017-09-14T09:50:33.234Z,24160.00
2017-09-14T09:51:33.212Z,14876.00
2017-09-14T09:52:33.188Z,10372.00
2017-09-14T09:53:33.166Z,11784.00
2017-09-14T09:54:33.138Z,24128.00
2017-09-14T09:55:33.118Z,29088.00
2017-09-14T09:56:33.093Z,29344.00
2017-09-14T09:57:33.070Z,28416.00
2017-09-14T09:58:33.044Z,29280.00
2017-09-14T09:59:33.022Z,28384.00
2017-09-14T10:00:33.000Z,8160.00
2017-09-14T10:01:32.977Z,8760.00
2017-09-14T10:02:32.953Z,8720.00
2017-09-14T10:03:32.930Z,8140.00
2017-09-14T10:04:32.904Z,10420.00
2017-09-14T10:05:32.884Z,12844.00
2017-09-14T10:06:32.851Z,34016.00
2017-09-14T10:07:32.834Z,19072.00
2017-09-14T10:08:32.810Z,11600.00
2017-09-14T10:09:32.787Z,12576.00
2017-09-14T10:10:32.761Z,14536.00
2017-09-14T10:11:32.740Z,28064.00
2017-09-14T10:12:32.724Z,31488.00
2017-09-14T10:13:32.689Z,28256.00
2017-09-14T10:14:32.667Z,28640.00
2017-09-14T10:15:32.651Z,33600.00
2017-09-14T10:16:32.622Z,28352.00
2017-09-14T10:17:32.843Z,17440.00
2017-09-14T10:18:32.576Z,38656.00
2017-09-14T10:19:32.553Z,9856.00
2017-09-14T10:20:32.532Z,24128.00
2017-09-14T10:21:32.512Z,35328.00
2017-09-14T10:22:32.489Z,10360.00
2017-09-14T10:23:32.466Z,8660.00
2017-09-14T10:24:32.443Z,11276.00
2017-09-14T10:25:32.423Z,35872.00
2017-09-14T10:26:32.399Z,6596.00
2017-09-14T10:27:32.418Z,5844.00
2017-09-14T10:28:32.353Z,5748.00
2017-09-14T10:29:32.329Z,6132.00
2017-09-14T10:30:32.304Z,6752.00
2017-09-14T10:31:32.280Z,8916.00
2017-09-14T10:32:32.256Z,11648.00
2017-09-14T10:33:32.228Z,9960.00
2017-09-14T10:34:32.203Z,8592.00
2017-09-14T10:35:32.178Z,11464.00
2017-09-14T10:36:32.152Z,14364.00
2017-09-14T10:37:32.126Z,10160.00
2017-09-14T10:38:32.099Z,16864.00
2017-09-14T10:39:32.072Z,24480.00
2017-09-14T10:40:32.047Z,38464.00
2017-09-14T10:41:32.020Z,34240.00
2017-09-14T10:42:31.994Z,40448.00
2017-09-14T10:43:31.970Z,15928.00
2017-09-14T10:44:31.946Z,37088.00
2017-09-14T10:45:31.924Z,23296.00
2017-09-14T10:46:31.898Z,41216.00
2017-09-14T10:47:31.874Z,38112.00
2017-09-14T10:48:31.853Z,36448.00
2017-09-14T10:49:31.961Z,37856.00
2017-09-14T10:50:31.803Z,16512.00
2017-09-14T10:51:31.784Z,10788.00
2017-09-14T10:52:31.760Z,39808.00
2017-09-14T10:53:31.740Z,9528.00
2017-09-14T10:54:31.718Z,7740.00
2017-09-14T10:55:31.693Z,8376.00
2017-09-14T10:56:31.671Z,15648.00
2017-09-14T10:57:31.646Z,13504.00
2017-09-14T10:58:31.624Z,29184.00
2017-09-14T10:59:31.600Z,18944.00
2017-09-14T11:00:31.578Z,6772.00
2017-09-14T11:01:31.557Z,5716.00
2017-09-14T11:02:31.530Z,4480.00
2017-09-14T11:03:31.505Z,3908.00
2017-09-14T11:04:31.734Z,4004.00
2017-09-14T11:05:31.734Z,4712.00
2017-09-14T11:06:31.428Z,5720.00
2017-09-14T11:07:31.405Z,6256.00
2017-09-14T11:08:31.378Z,6012.00
2017-09-14T11:09:31.352Z,5856.00
2017-09-14T11:10:31.324Z,5780.00
2017-09-14T11:11:31.298Z,5944.00
2017-09-14T11:12:31.270Z,7244.00
2017-09-14T11:13:31.245Z,7648.00
2017-09-14T11:14:31.215Z,6700.00
2017-09-14T11:15:31.189Z,6220.00
2017-09-14T11:16:31.161Z,6420.00
2017-09-14T11:17:31.134Z,7080.00
2017-09-14T11:18:31.105Z,7436.00
2017-09-14T11:19:31.076Z,7380.00
2017-09-14T11:20:31.049Z,8664.00
2017-09-14T11:21:31.023Z,14384.00
2017-09-14T11:22:30.990Z,9896.00
2017-09-14T11:23:31.200Z,9008.00
2017-09-14T11:24:30.935Z,9284.00
2017-09-14T11:25:30.906Z,9608.00
2017-09-14T11:26:30.879Z,7728.00
2017-09-14T11:27:30.852Z,7904.00
2017-09-14T11:28:30.829Z,9580.00
2017-09-14T11:29:30.793Z,10124.00
2017-09-14T11:30:30.765Z,6804.00
2017-09-14T11:31:30.738Z,8076.00
2017-09-14T11:32:30.707Z,9536.00
2017-09-14T11:33:30.683Z,22208.00
2017-09-14T11:34:30.654Z,8652.00
2017-09-14T11:35:30.669Z,21056.00
2017-09-14T11:36:30.601Z,27296.00
2017-09-14T11:37:30.572Z,8328.00
2017-09-14T11:38:30.558Z,41248.00
2017-09-14T11:39:30.521Z,26208.00
2017-09-14T11:40:30.494Z,35072.00
2017-09-14T11:41:30.468Z,22240.00
2017-09-14T11:42:30.442Z,41184.00
2017-09-14T11:43:30.428Z,46656.00
2017-09-14T11:44:30.396Z,43392.00
2017-09-14T11:45:30.373Z,43552.00
2017-09-14T11:46:30.351Z,45248.00
2017-09-14T11:47:30.329Z,45504.00
2017-09-14T11:48:30.307Z,45600.00
2017-09-14T11:49:30.287Z,42944.00
2017-09-14T11:50:30.265Z,10020.00
2017-09-14T11:51:30.244Z,9428.00
2017-09-14T11:52:30.224Z,47264.00
2017-09-14T11:53:30.204Z,46400.00
2017-09-14T11:54:30.182Z,8964.00
2017-09-14T11:55:30.157Z,47008.00
2017-09-14T11:56:30.141Z,13292.00
2017-09-14T11:57:30.122Z,9316.00
2017-09-14T11:58:30.099Z,7956.00
2017-09-14T11:59:30.078Z,7616.00
2017-09-14T12:00:30.076Z,28352.00
2017-09-14T12:01:30.036Z,7356.00
2017-09-14T12:02:30.011Z,17856.00
2017-09-14T12:03:29.992Z,10000.00
2017-09-14T12:04:29.970Z,18016.00
2017-09-14T12:05:29.947Z,7928.00
2017-09-14T12:06:29.923Z,13904.00
2017-09-14T12:07:29.900Z,16000.00
2017-09-14T12:08:29.877Z,7896.00
2017-09-14T12:09:29.859Z,8384.00
2017-09-14T12:10:29.832Z,6508.00
2017-09-14T12:11:29.808Z,4984.00
2017-09-14T12:12:29.790Z,4464.00
2017-09-14T12:13:29.759Z,4208.00
2017-09-14T12:14:29.734Z,3536.00
2017-09-14T12:15:29.708Z,3420.00
2017-09-14T12:16:29.682Z,3876.00
2017-09-14T12:17:29.656Z,4216.00
2017-09-14T12:18:29.630Z,4252.00
2017-09-14T12:19:29.601Z,4320.00
2017-09-14T12:20:29.573Z,4568.00
2017-09-14T12:21:29.546Z,4868.00
2017-09-14T12:22:29.519Z,5204.00
2017-09-14T12:23:29.491Z,6216.00
2017-09-14T12:24:29.463Z,9176.00
2017-09-14T12:25:29.440Z,11152.00
2017-09-14T12:26:29.405Z,12308.00
2017-09-14T12:27:29.371Z,12376.00
2017-09-14T12:28:29.350Z,10296.00
2017-09-14T12:29:29.323Z,9284.00
2017-09-14T12:30:29.294Z,8120.00
2017-09-14T12:31:29.268Z,7788.00
2017-09-14T12:32:29.240Z,7488.00
2017-09-14T12:33:29.213Z,7760.00
2017-09-14T12:34:29.183Z,7880.00